Time;durP1;ratioP1;P1;durP2;ratioP2;P2;SDS_P1;SDS_P2;PMS_P1;PMS_P2;Temp;Humidity;BMP_temperature;BMP_pressure;BME280_temperature;BME280_humidity;BME280_pressure;Samples;Min_cycle;Max_cycle;Signal;HPM_P1;HPM_P2
2024/01/14 00:01:24;;;;;;;;;;;;;;;;;;5044353;28;19948;-51
2024/01/14 00:03:50;;;;;;;;;;;;;;;;;;5033672;28;19914;-51
2024/01/14 00:06:15;;;;;;;;;;;;;;;;;;5031004;28;19917;-49
2024/01/14 00:08:41;;;;;;;;;;;;;;;;;;5023715;28;19960;-50
2024/01/14 00:11:07;;;;;;;;;;;;;;;;;;5012261;28;19913;-53
2024/01/14 00:13:33;;;;;;;;;;;;;;;;;;5041365;28;19919;-49
2024/01/14 00:15:59;;;;;;;;;;;;;;;;;;5033836;28;20405;-48
2024/01/14 00:18:25;;;;;;;;;;;;;;;;;;5032153;28;19996;-50
2024/01/14 00:20:51;;;;;;;;;;;;;;;;;;5031917;28;19951;-50
2024/01/14 00:23:17;;;;;;;;;;;;;;;;;;5032328;28;20011;-51
2024/01/14 00:25:43;;;;;;;;;;;;;;;;;;5032093;28;19949;-49
2024/01/14 00:28:09;;;;;;;;;;;;;;;;;;5035759;28;19944;-51
2024/01/14 00:30:35;;;;;;;;;;;;;;;;;;5037825;28;19935;-48
2024/01/14 00:33:00;;;;;;;;;;;;;;;;;;5032266;28;20444;-51
2024/01/14 00:35:26;;;;;;;;;;;;;;;;;;5032138;28;20451;-51
2024/01/14 00:37:52;;;;;;;;;;;;;;;;;;5032222;28;19948;-50
2024/01/14 00:40:18;;;;;;;;;;;;;;;;;;5031488;28;20385;-52
2024/01/14 00:42:44;;;;;;;;;;;;;;;;;;5031263;28;20043;-49
2024/01/14 00:45:10;;;;;;;;;;;;;;;;;;5039482;28;20353;-51
2024/01/14 00:47:36;;;;;;;;;;;;;;;;;;5032116;28;19928;-52
2024/01/14 00:50:02;;;;;;;;;;;;;;;;;;5031615;28;19913;-51
2024/01/14 00:52:28;;;;;;;;;;;;;;;;;;5031788;28;20355;-49
2024/01/14 00:54:54;;;;;;;;;;;;;;;;;;5031863;28;19909;-57
2024/01/14 00:57:19;;;;;;;;;;;;;;;;;;5031534;28;20446;-56
2024/01/14 00:59:45;;;;;;;;;;;;;;;;;;5033794;28;20000;-56
2024/01/14 01:02:12;;;;;;;;;;;;;;;;;;5034176;28;20300;-56
2024/01/14 01:04:37;;;;;;;;;;;;;;;;;;5034878;28;19923;-56
2024/01/14 01:07:03;;;;;;;;;;;;;;;;;;5033878;28;20005;-56
2024/01/14 01:09:29;;;;;;;;;;;;;;;;;;5035864;28;19943;-56
2024/01/14 01:11:55;;;;;;;;;;;;;;;;;;5034434;28;19913;-56
2024/01/14 01:14:21;;;;;;;;;;;;;;;;;;5034940;28;19971;-56
2024/01/14 01:16:47;;;;;;;;;;;;;;;;;;5033812;28;19964;-56
2024/01/14 01:19:13;;;;;;;;;;;;;;;;;;5029765;28;19956;-52
2024/01/14 01:21:39;;;;;;;;;;;;;;;;;;5035256;28;19997;-56
2024/01/14 01:24:05;;;;;;;;;;;;;;;;;;5034976;28;20410;-56
2024/01/14 01:26:31;;;;;;;;;;;;;;;;;;5035324;28;19913;-57
2024/01/14 01:28:57;;;;;;;;;;;;;;;;;;5034205;28;19959;-56
2024/01/14 01:31:23;;;;;;;;;;;;;;;;;;5034620;28;20008;-56
2024/01/14 01:33:48;;;;;;;;;;;;;;;;;;5033628;28;19935;-55
2024/01/14 01:36:14;;;;;;;;;;;;;;;;;;5034992;28;19920;-56
2024/01/14 01:38:40;;;;;;;;;;;;;;;;;;5029721;28;20004;-56
2024/01/14 01:41:06;;;;;;;;;;;;;;;;;;5034608;28;19917;-55
2024/01/14 01:43:32;;;;;;;;;;;;;;;;;;5061767;28;19931;-54
2024/01/14 01:45:58;;;;;;;;;;;;;;;;;;5054359;28;20392;-57
2024/01/14 01:48:24;;;;;;;;;;;;;;;;;;5054517;28;20003;-56
2024/01/14 01:50:50;;;;;;;;;;;;;;;;;;5050374;28;19963;-56
2024/01/14 01:53:16;;;;;;;;;;;;;;;;;;5054389;28;19964;-56
2024/01/14 01:55:42;;;;;;;;;;;;;;;;;;5054758;28;19962;-55
2024/01/14 01:58:08;;;;;;;;;;;;;;;;;;5053577;28;19920;-56
2024/01/14 02:00:34;;;;;;;;;;;;;;;;;;5054435;28;19963;-51
2024/01/14 02:03:00;;;;;;;;;;;;;;;;;;5054438;28;19912;-54
2024/01/14 02:05:26;;;;;;;;;;;;;;;;;;5054386;28;19919;-54
2024/01/14 02:07:51;;;;;;;;;;;;;;;;;;5041282;28;19972;-55
2024/01/14 02:10:17;;;;;;;;;;;;;;;;;;5053448;28;20046;-55
2024/01/14 02:12:43;;;;;;;;;;;;;;;;;;5054574;28;19913;-54
2024/01/14 02:15:09;;;;;;;;;;;;;;;;;;5054000;28;20388;-55
2024/01/14 02:17:35;;;;;;;;;;;;;;;;;;5054202;28;19954;-54
2024/01/14 02:20:01;;;;;;;;;;;;;;;;;;5053735;28;19999;-56
2024/01/14 02:22:28;;;;;;;;;;;;;;;;;;5054210;28;20419;-56
2024/01/14 02:24:54;;;;;;;;;;;;;;;;;;5042543;28;19960;-56
2024/01/14 02:27:19;;;;;;;;;;;;;;;;;;5036199;28;19952;-55
2024/01/14 02:29:45;;;;;;;;;;;;;;;;;;5054683;28;19921;-54
2024/01/14 02:32:11;;;;;;;;;;;;;;;;;;5054103;28;20325;-56
2024/01/14 02:34:37;;;;;;;;;;;;;;;;;;5053841;28;20333;-55
2024/01/14 02:37:03;;;;;;;;;;;;;;;;;;5053985;28;19912;-56
2024/01/14 02:39:29;;;;;;;;;;;;;;;;;;5053369;28;19996;-55
2024/01/14 02:41:55;;;;;;;;;;;;;;;;;;5037371;28;19925;-55
2024/01/14 02:44:21;;;;;;;;;;;;;;;;;;5039608;28;19965;-55
2024/01/14 02:46:47;;;;;;;;;;;;;;;;;;5019254;28;20377;-54
2024/01/14 02:49:13;;;;;;;;;;;;;;;;;;5037493;28;19999;-54
2024/01/14 02:51:39;;;;;;;;;;;;;;;;;;5033483;28;20414;-56
2024/01/14 02:54:04;;;;;;;;;;;;;;;;;;5033643;28;20534;-55
2024/01/14 02:56:30;;;;;;;;;;;;;;;;;;5033402;28;19913;-54
2024/01/14 02:58:56;;;;;;;;;;;;;;;;;;5042074;28;20062;-55
2024/01/14 03:01:22;;;;;;;;;;;;;;;;;;5046432;28;19920;-56
2024/01/14 03:03:48;;;;;;;;;;;;;;;;;;5038762;28;19913;-56
2024/01/14 03:06:14;;;;;;;;;;;;;;;;;;5031740;28;19913;-55
2024/01/14 03:08:40;;;;;;;;;;;;;;;;;;5033341;28;19919;-55
2024/01/14 03:11:06;;;;;;;;;;;;;;;;;;5032968;28;19913;-55
2024/01/14 03:13:32;;;;;;;;;;;;;;;;;;5032140;28;20010;-55
2024/01/14 03:15:57;;;;;;;;;;;;;;;;;;5033282;28;19912;-56
2024/01/14 03:18:23;;;;;;;;;;;;;;;;;;5033110;28;20380;-57
2024/01/14 03:20:49;;;;;;;;;;;;;;;;;;5032031;28;19952;-54
2024/01/14 03:23:15;;;;;;;;;;;;;;;;;;5031518;28;19941;-56
2024/01/14 03:25:41;;;;;;;;;;;;;;;;;;5032981;28;20003;-57
2024/01/14 03:28:07;;;;;;;;;;;;;;;;;;5032653;28;19917;-56
2024/01/14 03:30:33;;;;;;;;;;;;;;;;;;5041429;28;19913;-57
2024/01/14 03:32:59;;;;;;;;;;;;;;;;;;5032357;28;19913;-57
2024/01/14 03:35:25;;;;;;;;;;;;;;;;;;5041994;28;19935;-57
2024/01/14 03:37:51;;;;;;;;;;;;;;;;;;5032966;28;20408;-55
2024/01/14 03:40:16;;;;;;;;;;;;;;;;;;5034563;28;19952;-56
2024/01/14 03:42:42;;;;;;;;;;;;;;;;;;5038704;28;19928;-57
2024/01/14 03:45:08;;;;;;;;;;;;;;;;;;5035876;28;20374;-56
2024/01/14 03:47:34;;;;;;;;;;;;;;;;;;5032727;28;20028;-56
2024/01/14 03:50:00;;;;;;;;;;;;;;;;;;5032389;28;19979;-54
2024/01/14 03:52:26;;;;;;;;;;;;;;;;;;5032407;28;19913;-57
2024/01/14 03:54:52;;;;;;;;;;;;;;;;;;5031079;28;19909;-57
2024/01/14 03:57:18;;;;;;;;;;;;;;;;;;5032066;28;19913;-56
2024/01/14 03:59:44;;;;;;;;;;;;;;;;;;5041949;28;19920;-55
2024/01/14 04:02:10;;;;;;;;;;;;;;;;;;5039906;28;20368;-55
2024/01/14 04:04:36;;;;;;;;;;;;;;;;;;5032321;28;19975;-56
2024/01/14 04:07:02;;;;;;;;;;;;;;;;;;5032600;28;20023;-57
2024/01/14 04:09:28;;;;;;;;;;;;;;;;;;5032130;28;19920;-57
2024/01/14 04:11:54;;;;;;;;;;;;;;;;;;5030610;28;20385;-56
2024/01/14 04:14:20;;;;;;;;;;;;;;;;;;5036429;28;20012;-57
2024/01/14 04:16:46;;;;;;;;;;;;;;;;;;5050394;28;20603;-56
2024/01/14 04:19:12;;;;;;;;;;;;;;;;;;5032261;28;19909;-56
2024/01/14 04:21:38;;;;;;;;;;;;;;;;;;5032073;28;19913;-57
2024/01/14 04:24:04;;;;;;;;;;;;;;;;;;5032315;28;19971;-55
2024/01/14 04:26:30;;;;;;;;;;;;;;;;;;5030997;28;19917;-56
2024/01/14 04:28:55;;;;;;;;;;;;;;;;;;5034926;28;19988;-56
2024/01/14 04:31:21;;;;;;;;;;;;;;;;;;5045670;28;21739;-55
2024/01/14 04:33:47;;;;;;;;;;;;;;;;;;5042843;28;19924;-56
2024/01/14 04:36:14;;;;;;;;;;;;;;;;;;5036252;28;19913;-57
2024/01/14 04:38:40;;;;;;;;;;;;;;;;;;5035938;28;20015;-55
2024/01/14 04:41:06;;;;;;;;;;;;;;;;;;5035434;28;20262;-56
2024/01/14 04:43:32;;;;;;;;;;;;;;;;;;5054036;28;20380;-56
2024/01/14 04:45:58;;;;;;;;;;;;;;;;;;5055092;28;19972;-56
2024/01/14 04:48:24;;;;;;;;;;;;;;;;;;5049273;28;19945;-56
2024/01/14 04:50:50;;;;;;;;;;;;;;;;;;5055417;28;19959;-57
2024/01/14 04:53:16;;;;;;;;;;;;;;;;;;5055724;28;19913;-56
2024/01/14 04:55:42;;;;;;;;;;;;;;;;;;5055373;28;20008;-55
2024/01/14 04:58:07;;;;;;;;;;;;;;;;;;5055139;28;20003;-56
2024/01/14 05:00:33;;;;;;;;;;;;;;;;;;5054303;28;20379;-57
2024/01/14 05:02:59;;;;;;;;;;;;;;;;;;5047910;28;19967;-57
2024/01/14 05:05:25;;;;;;;;;;;;;;;;;;5053425;28;20280;-56
2024/01/14 05:07:51;;;;;;;;;;;;;;;;;;5055338;28;19909;-56
2024/01/14 05:10:17;;;;;;;;;;;;;;;;;;5051813;28;19921;-56
2024/01/14 05:12:43;;;;;;;;;;;;;;;;;;5043211;28;20008;-56
2024/01/14 05:15:09;;;;;;;;;;;;;;;;;;5056370;28;20058;-57
2024/01/14 05:17:35;;;;;;;;;;;;;;;;;;5055275;28;20003;-56
2024/01/14 05:20:01;;;;;;;;;;;;;;;;;;5054482;28;19957;-57
2024/01/14 05:22:27;;;;;;;;;;;;;;;;;;5050045;28;20301;-57
2024/01/14 05:24:52;;;;;;;;;;;;;;;;;;5054509;28;19963;-56
2024/01/14 05:27:18;;;;;;;;;;;;;;;;;;5055045;28;19913;-57
2024/01/14 05:29:44;;;;;;;;;;;;;;;;;;5053627;28;19955;-56
2024/01/14 05:32:10;;;;;;;;;;;;;;;;;;5054679;28;19913;-57
2024/01/14 05:34:36;;;;;;;;;;;;;;;;;;5054558;28;19963;-55
2024/01/14 05:37:02;;;;;;;;;;;;;;;;;;5051076;28;20642;-56
2024/01/14 05:39:28;;;;;;;;;;;;;;;;;;5052719;28;19995;-57
2024/01/14 05:41:54;;;;;;;;;;;;;;;;;;5049591;28;19917;-57
2024/01/14 05:44:20;;;;;;;;;;;;;;;;;;5046596;28;20403;-56
2024/01/14 05:46:46;;;;;;;;;;;;;;;;;;5052552;28;19913;-57
2024/01/14 05:49:12;;;;;;;;;;;;;;;;;;5048972;28;19912;-56
2024/01/14 05:51:38;;;;;;;;;;;;;;;;;;5042033;28;19917;-57
2024/01/14 05:54:04;;;;;;;;;;;;;;;;;;5052378;28;19936;-56
2024/01/14 05:56:30;;;;;;;;;;;;;;;;;;5047102;28;19913;-55
2024/01/14 05:58:56;;;;;;;;;;;;;;;;;;5035194;28;20010;-56
2024/01/14 06:01:22;;;;;;;;;;;;;;;;;;5042778;28;19916;-56
2024/01/14 06:03:48;;;;;;;;;;;;;;;;;;5028771;28;20438;-55
2024/01/14 06:06:14;;;;;;;;;;;;;;;;;;5048256;28;19964;-56
2024/01/14 06:08:40;;;;;;;;;;;;;;;;;;5050870;28;19916;-63
2024/01/14 06:11:06;;;;;;;;;;;;;;;;;;5038525;28;19920;-57
2024/01/14 06:13:32;;;;;;;;;;;;;;;;;;5039435;28;19920;-56
2024/01/14 06:15:58;;;;;;;;;;;;;;;;;;5038320;28;19913;-55
2024/01/14 06:18:24;;;;;;;;;;;;;;;;;;5049071;28;19909;-56
2024/01/14 06:20:50;;;;;;;;;;;;;;;;;;5039899;28;19956;-56
2024/01/14 06:23:16;;;;;;;;;;;;;;;;;;5044633;28;19959;-56
2024/01/14 06:25:42;;;;;;;;;;;;;;;;;;5048215;28;20409;-57
2024/01/14 06:28:08;;;;;;;;;;;;;;;;;;5044987;28;19916;-56
2024/01/14 06:30:34;;;;;;;;;;;;;;;;;;5019723;28;20288;-57
2024/01/14 06:33:00;;;;;;;;;;;;;;;;;;5040067;28;20350;-56
2024/01/14 06:35:25;;;;;;;;;;;;;;;;;;5049135;28;20328;-57
2024/01/14 06:37:51;;;;;;;;;;;;;;;;;;5033349;28;19982;-56
2024/01/14 06:40:17;;;;;;;;;;;;;;;;;;5041088;28;20007;-56
2024/01/14 06:42:43;;;;;;;;;;;;;;;;;;5050889;28;19920;-56
2024/01/14 06:45:09;;;;;;;;;;;;;;;;;;5051200;28;19917;-49
2024/01/14 06:47:35;;;;;;;;;;;;;;;;;;5045243;28;20055;-49
2024/01/14 06:50:01;;;;;;;;;;;;;;;;;;5043408;28;20383;-52
2024/01/14 06:52:27;;;;;;;;;;;;;;;;;;5024373;28;19976;-48
2024/01/14 06:54:53;;;;;;;;;;;;;;;;;;5036588;28;20008;-51
2024/01/14 06:57:19;;;;;;;;;;;;;;;;;;5039190;28;19967;-52
2024/01/14 06:59:45;;;;;;;;;;;;;;;;;;5037621;28;19952;-49
2024/01/14 07:02:12;;;;;;;;;;;;;;;;;;5049252;28;20344;-52
2024/01/14 07:04:38;;;;;;;;;;;;;;;;;;5038046;28;19917;-50
2024/01/14 07:07:04;;;;;;;;;;;;;;;;;;5042739;28;20651;-52
2024/01/14 07:09:29;;;;;;;;;;;;;;;;;;5046327;28;19913;-51
2024/01/14 07:11:56;;;;;;;;;;;;;;;;;;5036340;28;19921;-51
2024/01/14 07:14:24;;;;;;;;;;;;;;;;;;5048975;28;19916;-50
2024/01/14 07:16:50;;;;;;;;;;;;;;;;;;5029840;28;19981;-50
2024/01/14 07:19:16;;;;;;;;;;;;;;;;;;5050416;28;19913;-50
2024/01/14 07:21:42;;;;;;;;;;;;;;;;;;5050792;28;20377;-50
2024/01/14 07:24:08;;;;;;;;;;;;;;;;;;5034269;28;19913;-51
2024/01/14 07:26:34;;;;;;;;;;;;;;;;;;5043561;28;19975;-49
2024/01/14 07:29:00;;;;;;;;;;;;;;;;;;5042658;28;19913;-50
2024/01/14 07:31:26;;;;;;;;;;;;;;;;;;5045420;28;19918;-50
2024/01/14 07:33:52;;;;;;;;;;;;;;;;;;5030910;28;19967;-53
2024/01/14 07:36:17;;;;;;;;;;;;;;;;;;5036998;28;19933;-51
2024/01/14 07:38:43;;;;;;;;;;;;;;;;;;5044489;28;19917;-48
2024/01/14 07:41:09;;;;;;;;;;;;;;;;;;5033651;28;20399;-51
2024/01/14 07:43:35;;;;;;;;;;;;;;;;;;5054023;28;19967;-52
2024/01/14 07:46:01;;;;;;;;;;;;;;;;;;5055215;28;19920;-51
2024/01/14 07:48:27;;;;;;;;;;;;;;;;;;5045366;28;19954;-50
2024/01/14 07:50:53;;;;;;;;;;;;;;;;;;5040888;28;19940;-50
2024/01/14 07:53:19;;;;;;;;;;;;;;;;;;5050832;28;19960;-51
2024/01/14 07:55:45;;;;;;;;;;;;;;;;;;5051888;28;19916;-53
2024/01/14 07:58:11;;;;;;;;;;;;;;;;;;5040431;28;19913;-53
2024/01/14 08:00:37;;;;;;;;;;;;;;;;;;5050001;28;19924;-55
2024/01/14 08:03:03;;;;;;;;;;;;;;;;;;5049901;28;19964;-54
2024/01/14 08:05:29;;;;;;;;;;;;;;;;;;5050968;28;20359;-54
2024/01/14 08:07:55;;;;;;;;;;;;;;;;;;5050928;28;20011;-52
2024/01/14 08:10:21;;;;;;;;;;;;;;;;;;5051232;28;19909;-54
2024/01/14 08:12:47;;;;;;;;;;;;;;;;;;5051366;28;20012;-55
2024/01/14 08:15:13;;;;;;;;;;;;;;;;;;5060717;28;19921;-53
2024/01/14 08:17:39;;;;;;;;;;;;;;;;;;5050903;28;20462;-53
2024/01/14 08:20:05;;;;;;;;;;;;;;;;;;5049345;28;20011;-54
2024/01/14 08:22:31;;;;;;;;;;;;;;;;;;5048538;28;20270;-53
2024/01/14 08:24:56;;;;;;;;;;;;;;;;;;5043033;28;19917;-54
2024/01/14 08:27:22;;;;;;;;;;;;;;;;;;5048895;28;19913;-53
2024/01/14 08:29:48;;;;;;;;;;;;;;;;;;5038189;28;19996;-54
2024/01/14 08:32:14;;;;;;;;;;;;;;;;;;5044697;28;20333;-53
2024/01/14 08:34:40;;;;;;;;;;;;;;;;;;5050177;28;20347;-55
2024/01/14 08:37:06;;;;;;;;;;;;;;;;;;5051147;28;20001;-54
2024/01/14 08:39:32;;;;;;;;;;;;;;;;;;5050943;28;19909;-53
2024/01/14 08:41:58;;;;;;;;;;;;;;;;;;5046232;28;20456;-54
2024/01/14 08:44:24;;;;;;;;;;;;;;;;;;5049925;28;19944;-55
2024/01/14 08:46:50;;;;;;;;;;;;;;;;;;5045171;28;19919;-55
2024/01/14 08:49:16;;;;;;;;;;;;;;;;;;5041932;28;20603;-53
2024/01/14 08:51:41;;;;;;;;;;;;;;;;;;5049365;28;20316;-52
2024/01/14 08:54:07;;;;;;;;;;;;;;;;;;5047178;28;20011;-52
2024/01/14 08:56:33;;;;;;;;;;;;;;;;;;5051111;28;19996;-53
2024/01/14 08:58:59;;;;;;;;;;;;;;;;;;5051018;28;19919;-54
2024/01/14 09:01:26;;;;;;;;;;;;;;;;;;5050127;28;19959;-53
2024/01/14 09:03:52;;;;;;;;;;;;;;;;;;5050954;28;19924;-54
2024/01/14 09:06:18;;;;;;;;;;;;;;;;;;5048964;28;20036;-57
2024/01/14 09:08:44;;;;;;;;;;;;;;;;;;5045388;28;19975;-57
2024/01/14 09:11:10;;;;;;;;;;;;;;;;;;5047029;28;19952;-57
2024/01/14 09:13:36;;;;;;;;;;;;;;;;;;5047220;28;19921;-57
2024/01/14 09:16:02;;;;;;;;;;;;;;;;;;5056442;28;19963;-56
2024/01/14 09:18:28;;;;;;;;;;;;;;;;;;5048195;28;20391;-57
2024/01/14 09:20:54;;;;;;;;;;;;;;;;;;5052378;28;19924;-56
2024/01/14 09:23:19;;;;;;;;;;;;;;;;;;5053908;28;19928;-57
2024/01/14 09:25:45;;;;;;;;;;;;;;;;;;5054575;28;20015;-57
2024/01/14 09:28:11;;;;;;;;;;;;;;;;;;5053889;28;19921;-57
2024/01/14 09:30:38;;;;;;;;;;;;;;;;;;5029784;28;19930;-56
2024/01/14 09:33:04;;;;;;;;;;;;;;;;;;5051120;28;19921;-57
2024/01/14 09:35:29;;;;;;;;;;;;;;;;;;5055422;28;19972;-57
2024/01/14 09:37:55;;;;;;;;;;;;;;;;;;5055205;28;20347;-57
2024/01/14 09:40:21;;;;;;;;;;;;;;;;;;5051796;28;19913;-57
2024/01/14 09:42:47;;;;;;;;;;;;;;;;;;5039201;28;19991;-56
2024/01/14 09:45:14;;;;;;;;;;;;;;;;;;5032516;28;20011;-53
2024/01/14 09:47:39;;;;;;;;;;;;;;;;;;5034281;28;20007;-57
2024/01/14 09:50:06;;;;;;;;;;;;;;;;;;5029910;28;20456;-57
2024/01/14 09:52:32;;;;;;;;;;;;;;;;;;5032526;28;19913;-56
2024/01/14 09:54:58;;;;;;;;;;;;;;;;;;5031345;28;20288;-56
2024/01/14 09:57:24;;;;;;;;;;;;;;;;;;5033463;28;19913;-57
2024/01/14 09:59:50;;;;;;;;;;;;;;;;;;5033005;28;20389;-56
2024/01/14 10:02:16;;;;;;;;;;;;;;;;;;5031669;28;19913;-57
2024/01/14 10:04:42;;;;;;;;;;;;;;;;;;5024766;28;19961;-57
2024/01/14 10:07:08;;;;;;;;;;;;;;;;;;5025002;28;19997;-56
2024/01/14 10:09:35;;;;;;;;;;;;;;;;;;5030612;28;20024;-56
2024/01/14 10:12:01;;;;;;;;;;;;;;;;;;5026487;28;20384;-56
2024/01/14 10:14:27;;;;;;;;;;;;;;;;;;5026297;28;19960;-53
2024/01/14 10:16:53;;;;;;;;;;;;;;;;;;5028863;28;19935;-56
2024/01/14 10:19:19;;;;;;;;;;;;;;;;;;5028757;28;19913;-56
2024/01/14 10:21:45;;;;;;;;;;;;;;;;;;5032459;28;19957;-54
2024/01/14 10:24:10;;;;;;;;;;;;;;;;;;5030489;28;19928;-55
2024/01/14 10:26:36;;;;;;;;;;;;;;;;;;5022577;28;19913;-56
2024/01/14 10:29:05;;;;;;;;;;;;;;;;;;5011912;28;20378;-55
2024/01/14 10:31:31;;;;;;;;;;;;;;;;;;5024618;28;19913;-55
2024/01/14 10:33:57;;;;;;;;;;;;;;;;;;5027831;28;20412;-56
2024/01/14 10:36:23;;;;;;;;;;;;;;;;;;5031188;28;19913;-54
2024/01/14 10:38:49;;;;;;;;;;;;;;;;;;5026152;28;20388;-55
2024/01/14 10:41:16;;;;;;;;;;;;;;;;;;5028092;28;19921;-56
2024/01/14 10:43:42;;;;;;;;;;;;;;;;;;5028452;28;20437;-55
2024/01/14 10:46:08;;;;;;;;;;;;;;;;;;5021795;28;20007;-56
2024/01/14 10:48:33;;;;;;;;;;;;;;;;;;5030087;28;19913;-55
2024/01/14 10:50:59;;;;;;;;;;;;;;;;;;5021325;28;20060;-56
2024/01/14 10:53:26;;;;;;;;;;;;;;;;;;5020724;28;19913;-56
2024/01/14 10:55:52;;;;;;;;;;;;;;;;;;5024031;28;19971;-55
2024/01/14 10:58:18;;;;;;;;;;;;;;;;;;5038656;28;20389;-56
2024/01/14 11:00:44;;;;;;;;;;;;;;;;;;5024336;28;20439;-55
2024/01/14 11:03:10;;;;;;;;;;;;;;;;;;5014212;28;20415;-55
2024/01/14 11:05:36;;;;;;;;;;;;;;;;;;5028261;28;20009;-55
2024/01/14 11:08:03;;;;;;;;;;;;;;;;;;5021455;28;19913;-55
2024/01/14 11:10:29;;;;;;;;;;;;;;;;;;5024230;28;19917;-54
2024/01/14 11:12:55;;;;;;;;;;;;;;;;;;5028530;28;19962;-56
2024/01/14 11:15:21;;;;;;;;;;;;;;;;;;5032202;28;20006;-56
2024/01/14 11:17:47;;;;;;;;;;;;;;;;;;5032101;28;19920;-56
2024/01/14 11:20:13;;;;;;;;;;;;;;;;;;5031691;28;19919;-56
2024/01/14 11:22:39;;;;;;;;;;;;;;;;;;5030382;28;19963;-55
2024/01/14 11:25:05;;;;;;;;;;;;;;;;;;5026698;28;19918;-53
2024/01/14 11:27:31;;;;;;;;;;;;;;;;;;5026714;28;19917;-55
2024/01/14 11:29:58;;;;;;;;;;;;;;;;;;5035332;28;20006;-55
2024/01/14 11:32:24;;;;;;;;;;;;;;;;;;5029171;28;19913;-56
2024/01/14 11:34:50;;;;;;;;;;;;;;;;;;5031960;28;19956;-55
2024/01/14 11:37:16;;;;;;;;;;;;;;;;;;5032241;28;19913;-55
2024/01/14 11:39:42;;;;;;;;;;;;;;;;;;5036714;28;19967;-55
2024/01/14 11:42:08;;;;;;;;;;;;;;;;;;5034886;28;19965;-56
2024/01/14 11:44:34;;;;;;;;;;;;;;;;;;5026514;28;20014;-54
2024/01/14 11:47:00;;;;;;;;;;;;;;;;;;5025747;28;20373;-55
2024/01/14 11:49:26;;;;;;;;;;;;;;;;;;5018910;28;19920;-56
2024/01/14 11:51:52;;;;;;;;;;;;;;;;;;5023583;28;20374;-56
2024/01/14 11:54:17;;;;;;;;;;;;;;;;;;5031696;28;19920;-55
2024/01/14 11:56:43;;;;;;;;;;;;;;;;;;5031536;28;20344;-54
2024/01/14 11:59:09;;;;;;;;;;;;;;;;;;5033885;28;20399;-56
2024/01/14 12:01:36;;;;;;;;;;;;;;;;;;5027498;28;20071;-55
2024/01/14 12:04:02;;;;;;;;;;;;;;;;;;5028657;28;20395;-55
2024/01/14 12:06:28;;;;;;;;;;;;;;;;;;5029596;28;20004;-53
2024/01/14 12:08:54;;;;;;;;;;;;;;;;;;5025919;28;20020;-56
2024/01/14 12:11:19;;;;;;;;;;;;;;;;;;5019312;28;20026;-56
2024/01/14 12:13:45;;;;;;;;;;;;;;;;;;5028342;28;19913;-55
2024/01/14 12:16:11;;;;;;;;;;;;;;;;;;5021743;28;19919;-54
2024/01/14 12:18:37;;;;;;;;;;;;;;;;;;5029906;28;19917;-54
2024/01/14 12:21:03;;;;;;;;;;;;;;;;;;5024319;28;19920;-54
2024/01/14 12:23:29;;;;;;;;;;;;;;;;;;5033758;28;19913;-55
2024/01/14 12:25:55;;;;;;;;;;;;;;;;;;5024300;28;20494;-54
2024/01/14 12:28:21;;;;;;;;;;;;;;;;;;5030134;28;19917;-56
2024/01/14 12:30:46;;;;;;;;;;;;;;;;;;5028673;28;19913;-55
2024/01/14 12:33:12;;;;;;;;;;;;;;;;;;5026091;28;19951;-56
2024/01/14 12:35:38;;;;;;;;;;;;;;;;;;5028968;28;19990;-53
2024/01/14 12:38:04;;;;;;;;;;;;;;;;;;5029543;28;19974;-49
2024/01/14 12:40:30;;;;;;;;;;;;;;;;;;5012677;28;19949;-53
2024/01/14 12:42:56;;;;;;;;;;;;;;;;;;5042446;28;19964;-51
2024/01/14 12:45:22;;;;;;;;;;;;;;;;;;5056026;28;19956;-51
2024/01/14 12:47:48;;;;;;;;;;;;;;;;;;5050962;28;20008;-53
2024/01/14 12:50:14;;;;;;;;;;;;;;;;;;5048824;28;19954;-52
2024/01/14 12:52:40;;;;;;;;;;;;;;;;;;5043593;28;19916;-51
2024/01/14 12:55:06;;;;;;;;;;;;;;;;;;5052823;28;20907;-51
2024/01/14 12:57:32;;;;;;;;;;;;;;;;;;5047519;28;19971;-49
2024/01/14 12:59:58;;;;;;;;;;;;;;;;;;5048285;28;19920;-52
2024/01/14 13:02:23;;;;;;;;;;;;;;;;;;5044605;28;19949;-50
2024/01/14 13:04:49;;;;;;;;;;;;;;;;;;5045786;28;20340;-54
2024/01/14 13:07:15;;;;;;;;;;;;;;;;;;5048566;28;19975;-51
2024/01/14 13:09:41;;;;;;;;;;;;;;;;;;5053079;28;19965;-52
2024/01/14 13:12:07;;;;;;;;;;;;;;;;;;5050035;28;19979;-51
2024/01/14 13:14:33;;;;;;;;;;;;;;;;;;5049002;28;19953;-51
2024/01/14 13:16:59;;;;;;;;;;;;;;;;;;5049865;28;20387;-52
2024/01/14 13:19:25;;;;;;;;;;;;;;;;;;5053655;28;19952;-52
2024/01/14 13:21:51;;;;;;;;;;;;;;;;;;5048162;28;19921;-52
2024/01/14 13:24:17;;;;;;;;;;;;;;;;;;5056229;28;19947;-51
2024/01/14 13:26:43;;;;;;;;;;;;;;;;;;5054848;28;19959;-52
2024/01/14 13:29:10;;;;;;;;;;;;;;;;;;5054284;28;20371;-54
2024/01/14 13:31:37;;;;;;;;;;;;;;;;;;5052569;28;19921;-52
2024/01/14 13:34:04;;;;;;;;;;;;;;;;;;5054318;28;19954;-50
2024/01/14 13:36:30;;;;;;;;;;;;;;;;;;5053945;28;19908;-52
2024/01/14 13:39:00;;;;;;;;;;;;;;;;;;5051889;28;20389;-53
2024/01/14 13:41:26;;;;;;;;;;;;;;;;;;5058764;28;19913;-52
2024/01/14 13:43:52;;;;;;;;;;;;;;;;;;5051634;28;19943;-53
2024/01/14 13:46:18;;;;;;;;;;;;;;;;;;5053063;28;19923;-54
2024/01/14 13:48:44;;;;;;;;;;;;;;;;;;5058867;28;19971;-54
2024/01/14 13:51:10;;;;;;;;;;;;;;;;;;5053212;28;19908;-55
2024/01/14 13:53:37;;;;;;;;;;;;;;;;;;5042677;28;20297;-55
2024/01/14 13:56:03;;;;;;;;;;;;;;;;;;5046319;28;19967;-55
2024/01/14 13:58:29;;;;;;;;;;;;;;;;;;5051628;28;19928;-55
2024/01/14 14:00:55;;;;;;;;;;;;;;;;;;5047962;28;19916;-54
2024/01/14 14:03:21;;;;;;;;;;;;;;;;;;5050439;28;19951;-55
2024/01/14 14:05:49;;;;;;;;;;;;;;;;;;5041265;28;20365;-54
2024/01/14 14:08:15;;;;;;;;;;;;;;;;;;5043139;28;19952;-54
2024/01/14 14:10:41;;;;;;;;;;;;;;;;;;5037646;28;20006;-54
2024/01/14 14:13:06;;;;;;;;;;;;;;;;;;5046775;28;19952;-55
2024/01/14 14:15:32;;;;;;;;;;;;;;;;;;5050040;28;20308;-53
2024/01/14 14:17:58;;;;;;;;;;;;;;;;;;5052521;28;19915;-54
2024/01/14 14:20:24;;;;;;;;;;;;;;;;;;5046395;28;19964;-54
2024/01/14 14:22:50;;;;;;;;;;;;;;;;;;5048095;28;19913;-54
2024/01/14 14:25:16;;;;;;;;;;;;;;;;;;5043332;28;19978;-55
2024/01/14 14:27:43;;;;;;;;;;;;;;;;;;5046789;28;19959;-55
2024/01/14 14:30:10;;;;;;;;;;;;;;;;;;5046785;28;19915;-54
2024/01/14 14:32:36;;;;;;;;;;;;;;;;;;5051345;28;19917;-54
2024/01/14 14:35:02;;;;;;;;;;;;;;;;;;5047504;28;19974;-54
2024/01/14 14:37:28;;;;;;;;;;;;;;;;;;5050716;28;19916;-54
2024/01/14 14:39:53;;;;;;;;;;;;;;;;;;5047797;28;20056;-54
2024/01/14 14:42:19;;;;;;;;;;;;;;;;;;5037726;28;19929;-55
2024/01/14 14:44:45;;;;;;;;;;;;;;;;;;5031416;28;20003;-54
2024/01/14 14:47:11;;;;;;;;;;;;;;;;;;5026998;28;19913;-54
2024/01/14 14:49:37;;;;;;;;;;;;;;;;;;5020584;28;19913;-54
2024/01/14 14:52:03;;;;;;;;;;;;;;;;;;5020255;28;19917;-54
2024/01/14 14:54:32;;;;;;;;;;;;;;;;;;5025309;28;19968;-56
2024/01/14 14:56:58;;;;;;;;;;;;;;;;;;5025531;28;19964;-53
2024/01/14 14:59:23;;;;;;;;;;;;;;;;;;5023111;28;19949;-52
2024/01/14 15:01:49;;;;;;;;;;;;;;;;;;5031646;28;19915;-51
2024/01/14 15:04:15;;;;;;;;;;;;;;;;;;5031401;28;19955;-54
2024/01/14 15:06:41;;;;;;;;;;;;;;;;;;5029924;28;19944;-55
2024/01/14 15:09:07;;;;;;;;;;;;;;;;;;5032060;28;20344;-55
2024/01/14 15:11:33;;;;;;;;;;;;;;;;;;5023417;28;19920;-53
2024/01/14 15:13:59;;;;;;;;;;;;;;;;;;5025033;28;19913;-51
2024/01/14 15:16:25;;;;;;;;;;;;;;;;;;5021013;28;19920;-53
2024/01/14 15:18:51;;;;;;;;;;;;;;;;;;5023541;28;19945;-53
2024/01/14 15:21:17;;;;;;;;;;;;;;;;;;5031593;28;20298;-51
2024/01/14 15:23:43;;;;;;;;;;;;;;;;;;5027194;28;20341;-52
2024/01/14 15:26:09;;;;;;;;;;;;;;;;;;5031814;28;19917;-52
2024/01/14 15:28:35;;;;;;;;;;;;;;;;;;5032734;28;20373;-52
2024/01/14 15:31:02;;;;;;;;;;;;;;;;;;5027470;28;19920;-53
2024/01/14 15:33:28;;;;;;;;;;;;;;;;;;5032863;28;20369;-53
2024/01/14 15:35:54;;;;;;;;;;;;;;;;;;5032523;28;19959;-52
2024/01/14 15:38:20;;;;;;;;;;;;;;;;;;5032569;28;19916;-51
2024/01/14 15:40:45;;;;;;;;;;;;;;;;;;5028917;28;19967;-53
2024/01/14 15:43:12;;;;;;;;;;;;;;;;;;5021940;28;19968;-50
2024/01/14 15:45:38;;;;;;;;;;;;;;;;;;5031569;28;20273;-53
2024/01/14 15:48:06;;;;;;;;;;;;;;;;;;5022529;28;21547;-51
2024/01/14 15:50:32;;;;;;;;;;;;;;;;;;5031880;28;19923;-51
2024/01/14 15:52:58;;;;;;;;;;;;;;;;;;5032160;28;19948;-52
2024/01/14 15:55:24;;;;;;;;;;;;;;;;;;5030208;28;19991;-52
2024/01/14 15:57:50;;;;;;;;;;;;;;;;;;5025202;28;20313;-52
2024/01/14 16:00:16;;;;;;;;;;;;;;;;;;5031289;28;19913;-52
2024/01/14 16:15:08;;;;;;;10.95;5.32;;;;;;;;;;5123319;27;20694;-48
2024/01/14 16:17:37;;;;;;;9.77;5.38;;;;;;;;;;5107049;28;20393;-48
2024/01/14 16:20:03;;;;;;;9.40;5.70;;;;;;;;;;5107870;28;20389;-48
2024/01/14 16:22:29;;;;;;;13.20;5.60;;;;;;;;;;5106818;28;20511;-50
2024/01/14 16:24:55;;;;;;;15.27;6.00;;;;;;;;;;5102429;28;20415;-48
2024/01/14 16:27:21;;;;;;;11.87;5.17;;;;;;;;;;5101439;28;20409;-51
2024/01/14 16:29:47;;;;;;;13.05;5.55;;;;;;;;;;5101370;28;20397;-49
2024/01/14 16:32:14;;;;;;;12.45;5.65;;;;;;;;;;5100794;28;20393;-51
2024/01/14 16:34:40;;;;;;;13.02;7.13;;;;;;;;;;5096036;28;20397;-48
2024/01/14 16:37:06;;;;;;;10.52;5.03;;;;;;;;;;5100327;28;20416;-50
2024/01/14 16:39:32;;;;;;;13.37;6.00;;;;;;;;;;5105547;28;20830;-50
2024/01/14 16:41:58;;;;;;;12.13;6.10;;;;;;;;;;5099684;28;20515;-52
2024/01/14 16:44:24;;;;;;;13.93;6.28;;;;;;;;;;5106424;28;20397;-47